createdAt,value
2024-05-09T00:01:09.831Z,5.00
2024-05-09T00:04:17.400Z,5.07
2024-05-09T00:07:25.983Z,5.00
2024-05-09T00:10:36.355Z,5.63
2024-05-09T00:13:43.828Z,6.50
2024-05-09T00:16:49.629Z,6.00
2024-05-09T00:19:57.254Z,6.27
2024-05-09T00:23:02.408Z,5.97
2024-05-09T00:26:07.739Z,6.00
2024-05-09T00:29:12.553Z,5.43
2024-05-09T00:32:17.544Z,6.57
2024-05-09T00:35:26.480Z,5.40
2024-05-09T00:38:31.629Z,4.93
2024-05-09T00:41:36.635Z,5.90
2024-05-09T00:44:41.742Z,5.63
2024-05-09T00:47:48.784Z,5.17
2024-05-09T00:50:57.766Z,6.00
2024-05-09T00:54:05.750Z,5.07
2024-05-09T00:57:10.586Z,4.90
2024-05-09T01:00:26.077Z,5.40
2024-05-09T01:03:36.212Z,6.33
2024-05-09T01:06:43.704Z,5.77
2024-05-09T01:09:48.523Z,5.63
2024-05-09T01:12:53.329Z,5.87
2024-05-09T01:15:58.684Z,5.17
2024-05-09T01:19:05.380Z,5.10
2024-05-09T01:22:13.093Z,5.17
2024-05-09T01:25:22.468Z,5.80
2024-05-09T01:28:27.344Z,5.50
2024-05-09T01:31:32.607Z,5.67
2024-05-09T01:34:40.600Z,5.17
2024-05-09T01:37:45.481Z,5.63
2024-05-09T01:40:53.251Z,5.47
2024-05-09T01:43:58.149Z,5.90
2024-05-09T01:47:02.966Z,5.63
2024-05-09T01:50:10.807Z,5.93
2024-05-09T01:53:16.903Z,5.40
2024-05-09T01:56:24.327Z,5.90
2024-05-09T01:59:29.212Z,5.73
2024-05-09T02:02:34.234Z,5.77
2024-05-09T02:05:39.304Z,5.93
2024-05-09T02:08:44.588Z,5.40
2024-05-09T02:11:53.454Z,5.63
2024-05-09T02:14:58.418Z,5.77
2024-05-09T02:18:03.628Z,6.00
2024-05-09T02:21:08.788Z,5.70
2024-05-09T02:24:13.739Z,5.87
2024-05-09T02:27:21.421Z,6.13
2024-05-09T02:30:36.093Z,5.77
2024-05-09T02:33:45.448Z,7.53
2024-05-09T02:36:50.786Z,6.23
2024-05-09T02:39:53.000Z,6.47
2024-05-09T02:43:00.658Z,5.90
2024-05-09T02:46:02.975Z,6.67
2024-05-09T02:49:07.868Z,6.67
2024-05-09T02:52:10.159Z,5.93
2024-05-09T02:55:15.211Z,6.87
2024-05-09T02:58:20.139Z,6.47
2024-05-09T03:01:25.076Z,6.00
2024-05-09T03:04:27.527Z,7.07
2024-05-09T03:07:34.746Z,7.13
2024-05-09T03:10:38.763Z,6.87
2024-05-09T03:13:46.988Z,6.90
2024-05-09T03:16:49.352Z,6.30
2024-05-09T03:19:54.161Z,7.10
2024-05-09T03:22:59.068Z,7.33
2024-05-09T03:26:01.394Z,6.73
2024-05-09T03:29:11.848Z,7.27
2024-05-09T03:32:16.814Z,7.53
2024-05-09T03:35:21.886Z,7.70
2024-05-09T03:38:26.943Z,6.73
2024-05-09T03:41:31.949Z,7.23
2024-05-09T03:44:39.410Z,7.17
2024-05-09T03:47:41.854Z,6.70
2024-05-09T03:50:48.928Z,7.20
2024-05-09T03:53:51.540Z,6.57
2024-05-09T03:56:56.324Z,6.47
2024-05-09T04:00:01.515Z,6.73
2024-05-09T04:03:12.090Z,6.47
2024-05-09T04:06:23.921Z,6.03
2024-05-09T04:09:28.712Z,6.93
2024-05-09T04:12:33.589Z,6.97
2024-05-09T04:15:38.798Z,6.47
2024-05-09T04:18:43.659Z,6.73
2024-05-09T04:21:45.969Z,6.80
2024-05-09T04:24:52.830Z,7.30
2024-05-09T04:27:57.629Z,6.90
2024-05-09T04:31:02.705Z,7.43
2024-05-09T04:34:08.094Z,6.73
2024-05-09T04:37:10.721Z,7.30
2024-05-09T04:40:24.248Z,7.33
2024-05-09T04:43:36.215Z,6.80
2024-05-09T04:46:43.618Z,7.00
2024-05-09T04:49:48.467Z,7.27
2024-05-09T04:52:53.373Z,6.53
2024-05-09T04:55:56.592Z,6.53
2024-05-09T04:59:01.527Z,7.57
2024-05-09T05:02:06.481Z,7.60
2024-05-09T05:05:12.115Z,7.00
2024-05-09T05:08:15.565Z,6.97
2024-05-09T05:11:21.007Z,6.77
2024-05-09T05:14:23.360Z,6.97
2024-05-09T05:17:33.350Z,7.80
2024-05-09T05:20:38.656Z,7.53
2024-05-09T05:23:43.871Z,7.07
2024-05-09T05:26:46.170Z,6.87
2024-05-09T05:29:54.011Z,7.33
2024-05-09T05:32:59.150Z,7.13
2024-05-09T05:36:04.088Z,7.03
2024-05-09T05:39:06.366Z,8.10
2024-05-09T05:42:12.014Z,7.53
2024-05-09T05:45:14.423Z,6.40
2024-05-09T05:48:22.164Z,7.03
2024-05-09T05:51:24.577Z,6.93
2024-05-09T05:54:29.834Z,6.87
2024-05-09T05:57:34.618Z,7.00
2024-05-09T06:00:40.738Z,6.80
2024-05-09T06:03:46.624Z,6.43
2024-05-09T06:06:52.039Z,7.47
2024-05-09T06:09:54.277Z,7.10
2024-05-09T06:12:59.061Z,5.87
2024-05-09T06:16:02.460Z,7.33
2024-05-09T06:19:10.136Z,7.13
2024-05-09T06:22:12.831Z,7.93
2024-05-09T06:25:17.813Z,7.23
2024-05-09T06:28:22.576Z,6.13
2024-05-09T06:31:52.770Z,6.57
2024-05-09T06:35:10.073Z,6.73
2024-05-09T06:38:18.730Z,6.83
2024-05-09T06:41:30.551Z,7.27
2024-05-09T06:44:39.425Z,6.93
2024-05-09T06:47:45.806Z,7.27
2024-05-09T06:50:50.901Z,6.47
2024-05-09T06:53:57.086Z,6.67
2024-05-09T06:57:01.296Z,6.90
2024-05-09T07:00:15.490Z,6.93
2024-05-09T07:03:24.709Z,6.20
2024-05-09T07:06:32.176Z,5.90
2024-05-09T07:09:37.465Z,6.27
2024-05-09T07:12:42.282Z,6.20
2024-05-09T07:15:44.692Z,5.70
2024-05-09T07:18:54.926Z,6.27
2024-05-09T07:22:02.588Z,5.40
2024-05-09T07:25:05.535Z,5.80
2024-05-09T07:28:14.783Z,6.07
2024-05-09T07:31:17.394Z,5.93
2024-05-09T07:34:22.494Z,5.40
2024-05-09T07:37:27.360Z,5.35
2024-05-09T07:40:36.162Z,4.82
2024-05-09T07:43:39.228Z,5.32
2024-05-09T07:47:48.509Z,4.88
2024-05-09T07:53:38.521Z,5.63
2024-05-09T07:56:44.742Z,4.68
2024-05-09T07:59:50.395Z,4.80
2024-05-09T08:02:58.389Z,4.72
2024-05-09T08:06:04.969Z,4.97
2024-05-09T08:09:13.895Z,4.40
2024-05-09T08:12:24.042Z,5.20
2024-05-09T08:15:26.593Z,4.78
2024-05-09T08:18:32.069Z,4.88
2024-05-09T08:21:34.543Z,4.38
2024-05-09T08:24:42.002Z,4.88
2024-05-09T08:27:44.283Z,5.00
2024-05-09T08:30:49.693Z,4.75
2024-05-09T08:33:52.495Z,4.97
2024-05-09T08:37:01.676Z,4.43
2024-05-09T08:40:23.484Z,5.20
2024-05-09T08:43:38.246Z,4.05
2024-05-09T08:46:44.068Z,4.30
2024-05-09T08:49:51.860Z,3.95
2024-05-09T08:52:56.728Z,4.15
2024-05-09T08:56:05.187Z,4.50
2024-05-09T08:59:13.470Z,4.13
2024-05-09T09:02:18.635Z,4.15
2024-05-09T09:05:28.455Z,3.55
2024-05-09T09:08:31.031Z,4.78
2024-05-09T09:11:38.489Z,3.90
2024-05-09T09:14:43.500Z,3.88
2024-05-09T09:17:58.856Z,4.05
2024-05-09T09:21:01.185Z,3.30
2024-05-09T09:24:09.857Z,3.15
2024-05-09T09:27:16.734Z,3.13
2024-05-09T09:30:33.996Z,3.80
2024-05-09T09:33:45.235Z,4.10
2024-05-09T09:36:55.179Z,3.70
2024-05-09T09:40:06.936Z,4.00
2024-05-09T09:43:19.306Z,3.85
2024-05-09T09:46:29.026Z,3.60
2024-05-09T09:49:33.405Z,3.55
2024-05-09T09:52:39.205Z,3.30
2024-05-09T09:55:42.738Z,4.28
2024-05-09T09:58:51.677Z,3.80
2024-05-09T10:01:56.327Z,3.88
2024-05-09T10:05:03.572Z,3.80
2024-05-09T10:08:07.656Z,3.42
2024-05-09T10:11:12.693Z,3.22
2024-05-09T10:14:23.432Z,3.75
2024-05-09T10:17:28.946Z,3.80
2024-05-09T10:20:43.557Z,3.53
2024-05-09T10:24:00.461Z,4.30
2024-05-09T10:27:04.559Z,3.17
2024-05-09T10:30:17.882Z,3.83
2024-05-09T10:33:37.456Z,3.45
2024-05-09T10:36:45.287Z,2.92
2024-05-09T10:39:47.717Z,3.30
2024-05-09T10:42:52.842Z,3.50
2024-05-09T10:45:57.818Z,3.30
2024-05-09T10:49:07.056Z,3.63
2024-05-09T10:52:10.565Z,3.25
2024-05-09T10:55:15.486Z,3.40
2024-05-09T10:58:18.016Z,3.40
2024-05-09T11:01:26.005Z,3.40
2024-05-09T11:04:28.412Z,3.60
2024-05-09T11:07:33.448Z,3.45
2024-05-09T11:10:35.917Z,3.50
2024-05-09T11:13:42.204Z,3.05
2024-05-09T11:16:47.000Z,3.22
2024-05-09T11:19:53.483Z,2.95
2024-05-09T11:22:55.743Z,3.38
2024-05-09T11:26:01.405Z,3.53
2024-05-09T11:29:06.451Z,3.38
2024-05-09T11:32:16.579Z,3.22
2024-05-09T11:35:18.888Z,3.00
2024-05-09T11:38:23.659Z,3.15
2024-05-09T11:41:27.170Z,3.10
2024-05-09T11:44:32.221Z,3.15
2024-05-09T11:47:38.434Z,3.58
2024-05-09T11:50:43.297Z,2.95
2024-05-09T11:53:48.100Z,3.22
2024-05-09T11:56:51.645Z,3.53
2024-05-09T11:59:57.347Z,3.75
2024-05-09T12:03:04.628Z,3.30
2024-05-09T12:06:09.955Z,3.40
2024-05-09T12:09:14.812Z,3.17
2024-05-09T12:12:16.990Z,2.83
2024-05-09T12:15:21.723Z,3.25
2024-05-09T12:18:26.598Z,2.95
2024-05-09T12:21:31.560Z,3.25
2024-05-09T12:24:33.813Z,3.35
2024-05-09T12:27:40.085Z,3.42
2024-05-09T12:30:43.012Z,3.53
2024-05-09T12:33:51.094Z,3.60
2024-05-09T12:36:53.507Z,3.00
2024-05-09T12:39:58.408Z,3.28
2024-05-09T12:43:03.810Z,3.10
2024-05-09T12:46:08.750Z,2.88
2024-05-09T12:49:16.397Z,2.72
2024-05-09T12:52:22.733Z,2.90
2024-05-09T12:55:25.013Z,3.20
2024-05-09T12:58:30.179Z,3.22
2024-05-09T13:01:32.464Z,2.85
2024-05-09T13:04:40.014Z,2.83
2024-05-09T13:07:44.888Z,3.30
2024-05-09T13:10:50.373Z,3.13
2024-05-09T13:13:52.717Z,2.95
2024-05-09T13:16:57.519Z,2.78
2024-05-09T13:20:03.323Z,2.75
2024-05-09T13:23:09.789Z,3.03
2024-05-09T13:26:12.278Z,2.58
2024-05-09T13:29:17.392Z,2.80
2024-05-09T13:32:19.590Z,2.80
2024-05-09T13:35:27.467Z,2.83
2024-05-09T13:38:29.765Z,2.72
2024-05-09T13:41:34.627Z,2.42
2024-05-09T13:44:37.176Z,2.47
2024-05-09T13:47:42.039Z,2.80
2024-05-09T13:50:49.555Z,3.22
2024-05-09T13:53:56.698Z,3.33
2024-05-09T13:56:59.317Z,2.75
2024-05-09T14:00:07.015Z,2.65
2024-05-09T14:03:14.318Z,2.90
2024-05-09T14:06:22.341Z,3.15
2024-05-09T14:09:24.885Z,2.60
2024-05-09T14:12:29.636Z,2.45
2024-05-09T14:15:31.942Z,2.35
2024-05-09T14:18:37.459Z,2.30
2024-05-09T14:21:44.930Z,2.13
2024-05-09T14:24:49.719Z,2.58
2024-05-09T14:27:52.123Z,2.60
2024-05-09T14:30:57.987Z,2.95
2024-05-09T14:34:00.409Z,3.28
2024-05-09T14:37:08.326Z,2.20
2024-05-09T14:40:30.339Z,2.40
2024-05-09T14:43:40.264Z,2.30
2024-05-09T14:46:42.854Z,2.53
2024-05-09T14:49:47.783Z,2.42
2024-05-09T14:52:52.761Z,2.85
2024-05-09T14:55:57.790Z,2.50
2024-05-09T14:59:00.183Z,2.80
2024-05-09T15:02:05.086Z,2.50
2024-05-09T15:05:11.096Z,2.97
2024-05-09T15:08:20.033Z,2.58
2024-05-09T15:11:23.065Z,2.90
2024-05-09T15:14:27.909Z,2.70
2024-05-09T15:17:33.321Z,2.72
2024-05-09T15:20:37.290Z,2.72
2024-05-09T15:23:45.548Z,3.00
2024-05-09T15:26:47.826Z,2.92
2024-05-09T15:29:52.724Z,2.83
2024-05-09T15:32:57.648Z,2.67
2024-05-09T15:36:00.118Z,2.72
2024-05-09T15:39:07.575Z,3.00
2024-05-09T15:42:10.052Z,3.05
2024-05-09T15:45:15.023Z,2.97
2024-05-09T15:48:17.892Z,2.70
2024-05-09T15:51:22.956Z,2.55
2024-05-09T15:54:28.094Z,2.80
2024-05-09T15:57:33.074Z,2.35
2024-05-09T16:00:40.641Z,2.85
2024-05-09T16:03:48.109Z,3.08
2024-05-09T16:06:53.215Z,2.85
2024-05-09T16:09:58.743Z,3.35
2024-05-09T16:13:04.136Z,2.95
2024-05-09T16:16:07.113Z,2.88
2024-05-09T16:19:12.301Z,3.30
2024-05-09T16:22:14.800Z,3.50
2024-05-09T16:25:22.320Z,3.00
2024-05-09T16:28:27.467Z,3.00
2024-05-09T16:31:30.948Z,2.53
2024-05-09T16:34:35.862Z,3.08
2024-05-09T16:37:40.887Z,3.47
2024-05-09T16:40:46.613Z,3.67
2024-05-09T16:43:51.895Z,3.20
2024-05-09T16:46:54.195Z,3.10
2024-05-09T16:49:59.033Z,2.90
2024-05-09T16:53:01.941Z,2.97
2024-05-09T16:56:10.396Z,3.58
2024-05-09T16:59:12.822Z,3.83
2024-05-09T17:02:17.935Z,3.35
2024-05-09T17:05:21.664Z,3.10
2024-05-09T17:08:26.658Z,4.47
2024-05-09T17:11:35.619Z,3.60
2024-05-09T17:14:40.584Z,3.08
2024-05-09T17:17:45.506Z,3.00
2024-05-09T17:20:51.506Z,3.40
2024-05-09T17:23:55.639Z,2.90
2024-05-09T17:27:03.183Z,2.90
2024-05-09T17:30:10.036Z,3.35
2024-05-09T17:33:17.254Z,3.15
2024-05-09T17:36:19.915Z,2.97
2024-05-09T17:39:24.852Z,2.92
2024-05-09T17:42:29.668Z,2.53
2024-05-09T17:45:34.893Z,3.60
2024-05-09T17:48:40.197Z,3.08
2024-05-09T17:51:53.962Z,3.28
2024-05-09T17:54:56.253Z,3.65
2024-05-09T17:58:04.087Z,3.53
2024-05-09T18:01:09.574Z,3.58
2024-05-09T18:04:12.894Z,3.40
2024-05-09T18:07:18.000Z,3.60
2024-05-09T18:10:42.049Z,3.63
2024-05-09T18:13:50.851Z,3.53
2024-05-09T18:17:45.944Z,3.88
2024-05-09T18:20:48.564Z,3.20
2024-05-09T18:23:55.478Z,3.97
2024-05-09T18:27:02.837Z,5.03
2024-05-09T18:33:47.419Z,4.00
2024-05-09T18:36:50.917Z,3.60
2024-05-09T18:40:11.735Z,3.63
2024-05-09T18:43:14.290Z,3.83
2024-05-09T18:46:21.798Z,3.28
2024-05-09T18:49:24.209Z,3.40
2024-05-09T18:52:29.234Z,3.92
2024-05-09T18:55:31.469Z,3.83
2024-05-09T18:58:36.346Z,4.35
2024-05-09T19:01:42.247Z,4.30
2024-05-09T19:04:48.290Z,4.25
2024-05-09T19:07:53.200Z,4.75
2024-05-09T19:10:59.890Z,4.25
2024-05-09T19:14:07.260Z,4.57
2024-05-09T19:17:14.925Z,4.45
2024-05-09T19:20:28.180Z,4.57
2024-05-09T19:23:38.248Z,4.47
2024-05-09T19:26:46.055Z,4.90
2024-05-09T19:29:48.232Z,4.63
2024-05-09T19:32:55.639Z,4.55
2024-05-09T19:36:00.491Z,5.05
2024-05-09T19:39:02.946Z,6.00
2024-05-09T19:42:08.856Z,5.75
2024-05-09T19:45:11.061Z,7.07
2024-05-09T19:48:18.981Z,6.85
2024-05-09T19:51:21.285Z,6.88
2024-05-09T19:54:26.043Z,7.00
2024-05-09T19:57:28.273Z,6.50
2024-05-09T20:00:36.217Z,6.80
2024-05-09T20:03:43.108Z,5.25
2024-05-09T20:06:48.066Z,5.75
2024-05-09T20:09:50.338Z,5.97
2024-05-09T20:12:55.181Z,5.43
2024-05-09T20:16:01.556Z,5.75
2024-05-09T20:19:09.133Z,5.18
2024-05-09T20:22:11.893Z,5.78
2024-05-09T20:25:16.903Z,5.28
2024-05-09T20:28:19.444Z,5.18
2024-05-09T20:31:24.468Z,5.70
2024-05-09T20:34:32.122Z,5.72
2024-05-09T20:37:34.398Z,6.05
2024-05-09T20:40:40.021Z,6.32
2024-05-09T20:43:42.364Z,6.15
2024-05-09T20:46:47.862Z,5.93
2024-05-09T20:49:53.237Z,5.90
2024-05-09T20:52:58.097Z,6.45
2024-05-09T20:56:00.377Z,6.25
2024-05-09T20:59:05.114Z,6.50
2024-05-09T21:02:07.413Z,6.72
2024-05-09T21:05:15.872Z,6.22
2024-05-09T21:08:20.877Z,6.28
2024-05-09T21:11:26.060Z,7.10
2024-05-09T21:14:30.877Z,7.50
2024-05-09T21:17:34.128Z,6.35
2024-05-09T21:20:41.822Z,6.53
2024-05-09T21:23:44.324Z,6.97
2024-05-09T21:26:49.155Z,7.13
2024-05-09T21:29:54.254Z,6.67
2024-05-09T21:32:56.799Z,6.70
2024-05-09T21:36:08.411Z,6.70
2024-05-09T21:39:11.209Z,6.87
2024-05-09T21:42:15.969Z,7.67
2024-05-09T21:45:18.165Z,7.43
2024-05-09T21:48:23.081Z,7.00
2024-05-09T21:51:27.875Z,6.90
2024-05-09T21:54:33.008Z,6.53
2024-05-09T21:57:40.525Z,6.67
2024-05-09T22:00:46.474Z,6.93
2024-05-09T22:03:49.180Z,7.40
2024-05-09T22:06:57.157Z,7.37
2024-05-09T22:09:59.538Z,7.03
2024-05-09T22:13:05.191Z,7.20
2024-05-09T22:16:08.828Z,7.07
2024-05-09T22:19:13.703Z,7.37
2024-05-09T22:22:21.245Z,7.40
2024-05-09T22:25:23.917Z,7.40
2024-05-09T22:28:29.333Z,7.17
2024-05-09T22:31:31.702Z,6.97
2024-05-09T22:34:36.517Z,6.90
2024-05-09T22:37:41.460Z,7.63
2024-05-09T22:40:49.195Z,7.53
2024-05-09T22:43:52.369Z,7.10
2024-05-09T22:46:59.714Z,7.70
2024-05-09T22:50:02.084Z,8.50
2024-05-09T22:53:09.640Z,7.10
2024-05-09T22:56:20.202Z,7.57
2024-05-09T22:59:25.001Z,7.13
2024-05-09T23:02:27.279Z,7.03
2024-05-09T23:05:33.393Z,7.77
2024-05-09T23:08:41.115Z,6.93
2024-05-09T23:11:45.777Z,6.77
2024-05-09T23:14:50.652Z,6.87
2024-05-09T23:17:53.115Z,7.47
2024-05-09T23:20:58.292Z,7.63
2024-05-09T23:24:03.086Z,7.40
2024-05-09T23:27:07.992Z,8.20
2024-05-09T23:30:12.586Z,7.83
2024-05-09T23:33:20.616Z,7.37
2024-05-09T23:36:22.849Z,6.83
2024-05-09T23:39:30.175Z,8.03
2024-05-09T23:42:32.389Z,8.10
2024-05-09T23:45:37.408Z,7.50
2024-05-09T23:48:42.606Z,7.47
2024-05-09T23:51:44.990Z,7.63
2024-05-09T23:54:52.367Z,7.03
2024-05-09T23:57:57.918Z,8.30
